createdAt,value
2019-01-19T00:00:47.054Z,-0.10
2019-01-19T00:03:39.994Z,-0.10
2019-01-19T00:06:49.614Z,-0.10
2019-01-19T00:09:26.982Z,-0.10
2019-01-19T00:12:33.022Z,-0.10
2019-01-19T00:15:31.971Z,0.00
2019-01-19T00:18:43.183Z,0.00
2019-01-19T00:21:29.177Z,0.10
2019-01-19T00:24:29.209Z,0.10
2019-01-19T00:27:37.610Z,0.10
2019-01-19T00:30:13.580Z,0.00
2019-01-19T00:33:36.623Z,0.00
2019-01-19T00:36:36.089Z,-0.10
2019-01-19T00:39:42.510Z,-0.20
2019-01-19T00:43:14.495Z,-0.30
2019-01-19T00:46:22.557Z,-0.30
2019-01-19T00:49:32.474Z,-0.30
2019-01-19T00:52:34.043Z,-0.20
2019-01-19T00:55:25.977Z,-0.20
2019-01-19T00:58:12.604Z,-0.30
2019-01-19T01:01:07.322Z,-0.30
2019-01-19T01:04:06.263Z,-0.30
2019-01-19T01:07:15.979Z,-0.30
2019-01-19T01:10:26.161Z,-0.30
2019-01-19T01:13:18.284Z,-0.40
2019-01-19T01:16:29.176Z,-0.40
2019-01-19T01:19:43.289Z,-0.40
2019-01-19T01:22:36.903Z,-0.50
2019-01-19T01:25:42.020Z,-0.60
2019-01-19T01:28:46.986Z,-0.70
2019-01-19T01:31:36.971Z,-0.70
2019-01-19T01:34:33.807Z,-0.70
2019-01-19T01:37:18.636Z,-0.70
2019-01-19T01:40:41.405Z,-0.70
2019-01-19T01:43:37.038Z,-0.80
2019-01-19T01:46:51.983Z,-0.90
2019-01-19T01:50:11.111Z,-0.90
2019-01-19T01:53:21.543Z,-0.90
2019-01-19T01:56:01.123Z,-1.00
2019-01-19T01:59:01.945Z,-0.90
2019-01-19T02:01:47.923Z,-0.90
2019-01-19T02:04:53.707Z,-1.00
2019-01-19T02:08:10.725Z,-1.00
2019-01-19T02:11:16.662Z,-1.00
2019-01-19T02:14:34.200Z,-1.00
2019-01-19T02:17:45.333Z,-1.10
2019-01-19T02:20:50.724Z,-1.20
2019-01-19T02:23:40.273Z,-1.20
2019-01-19T02:26:46.846Z,-1.30
2019-01-19T02:29:35.806Z,-1.30
2019-01-19T02:33:00.426Z,-1.40
2019-01-19T02:35:37.192Z,-1.40
2019-01-19T02:38:42.688Z,-1.40
2019-01-19T02:41:54.020Z,-1.40
2019-01-19T02:44:58.524Z,-1.40
2019-01-19T02:48:05.030Z,-1.40
2019-01-19T02:50:53.483Z,-1.50
2019-01-19T02:54:01.438Z,-1.50
2019-01-19T02:56:45.884Z,-1.40
2019-01-19T03:00:05.092Z,-1.50
2019-01-19T03:03:15.868Z,-1.50
2019-01-19T03:06:00.880Z,-1.50
2019-01-19T03:09:18.226Z,-1.50
2019-01-19T03:12:17.571Z,-1.50
2019-01-19T03:15:10.035Z,-1.60
2019-01-19T03:18:10.311Z,-1.60
2019-01-19T03:21:30.591Z,-1.50
2019-01-19T03:24:41.179Z,-1.60
2019-01-19T03:28:04.296Z,-1.50
2019-01-19T03:31:11.174Z,-1.60
2019-01-19T03:34:34.968Z,-1.70
2019-01-19T03:37:29.487Z,-1.70
2019-01-19T03:40:36.186Z,-1.70
2019-01-19T03:43:44.972Z,-1.70
2019-01-19T03:47:01.039Z,-1.70
2019-01-19T03:49:56.239Z,-1.60
2019-01-19T03:53:11.623Z,-1.70
2019-01-19T03:56:32.122Z,-1.70
2019-01-19T03:59:31.525Z,-1.60
2019-01-19T04:02:34.283Z,-1.60
2019-01-19T04:05:39.229Z,-1.60
2019-01-19T04:08:53.472Z,-1.60
2019-01-19T04:12:07.623Z,-1.50
2019-01-19T04:15:01.853Z,-1.50
2019-01-19T04:18:14.123Z,-1.50
2019-01-19T04:21:14.728Z,-1.50
2019-01-19T04:23:49.414Z,-1.60
2019-01-19T04:26:36.457Z,-1.50
2019-01-19T04:29:06.818Z,-1.50
2019-01-19T04:31:37.007Z,-1.50
2019-01-19T04:34:07.339Z,-1.50
2019-01-19T04:36:38.061Z,-1.50
2019-01-19T04:39:11.687Z,-1.40
2019-01-19T04:41:42.006Z,-1.40
2019-01-19T04:44:12.238Z,-1.30
2019-01-19T04:46:42.556Z,-1.40
2019-01-19T04:49:13.159Z,-1.40
2019-01-19T04:51:43.389Z,-1.40
2019-01-19T04:54:13.616Z,-1.40
2019-01-19T04:56:43.831Z,-1.30
2019-01-19T04:59:14.155Z,-1.30
2019-01-19T05:01:44.483Z,-1.30
2019-01-19T05:04:14.759Z,-1.30
2019-01-19T05:06:45.078Z,-1.30
2019-01-19T05:09:15.460Z,-1.20
2019-01-19T05:11:45.725Z,-1.20
2019-01-19T05:14:16.020Z,-1.20
2019-01-19T05:16:46.264Z,-1.20
2019-01-19T05:19:16.587Z,-1.10
2019-01-19T05:21:46.744Z,-1.20
2019-01-19T05:24:17.085Z,-1.20
2019-01-19T05:26:47.400Z,-1.20
2019-01-19T05:29:17.647Z,-1.20
2019-01-19T05:31:47.923Z,-1.20
2019-01-19T05:34:18.242Z,-1.30
2019-01-19T05:36:48.523Z,-1.30
2019-01-19T05:39:18.798Z,-1.20
2019-01-19T05:41:49.087Z,-1.20
2019-01-19T05:44:19.328Z,-1.20
2019-01-19T05:46:49.749Z,-1.20
2019-01-19T05:49:20.048Z,-1.10
2019-01-19T05:51:50.375Z,-1.10
2019-01-19T05:54:20.578Z,-1.20
2019-01-19T05:56:50.777Z,-1.10
2019-01-19T05:59:21.299Z,-1.10
2019-01-19T06:01:51.475Z,-1.10
2019-01-19T06:04:21.702Z,-1.20
2019-01-19T06:06:52.299Z,-1.20
2019-01-19T06:09:22.571Z,-1.30
2019-01-19T06:11:52.895Z,-1.30
2019-01-19T06:14:23.097Z,-1.30
2019-01-19T06:16:53.390Z,-1.30
2019-01-19T06:19:23.803Z,-1.30
2019-01-19T06:21:59.161Z,-1.40
2019-01-19T06:24:29.473Z,-1.40
2019-01-19T06:26:59.662Z,-1.30
2019-01-19T06:29:29.901Z,-1.40
2019-01-19T06:32:00.118Z,-1.40
2019-01-19T06:34:30.316Z,-1.30
2019-01-19T06:37:00.891Z,-1.30
2019-01-19T06:39:31.172Z,-1.40
2019-01-19T06:42:01.715Z,-1.40
2019-01-19T06:44:32.040Z,-1.40
2019-01-19T06:47:02.350Z,-1.50
2019-01-19T06:49:32.894Z,-1.40
2019-01-19T06:52:03.431Z,-1.30
2019-01-19T06:54:34.009Z,-1.40
2019-01-19T06:57:04.193Z,-1.40
2019-01-19T06:59:34.384Z,-1.30
2019-01-19T07:02:04.697Z,-1.30
2019-01-19T07:04:34.960Z,-1.30
2019-01-19T07:07:05.176Z,-1.30
2019-01-19T07:09:35.451Z,-1.40
2019-01-19T07:12:06.385Z,-1.40
2019-01-19T07:14:36.630Z,-1.40
2019-01-19T07:17:06.960Z,-1.30
2019-01-19T07:19:37.164Z,-1.30
2019-01-19T07:22:07.331Z,-1.30
2019-01-19T07:24:37.672Z,-1.30
2019-01-19T07:27:07.900Z,-1.30
2019-01-19T07:29:39.087Z,-1.20
2019-01-19T07:32:09.323Z,-1.20
2019-01-19T07:34:39.608Z,-1.30
2019-01-19T07:37:10.158Z,-1.30
2019-01-19T07:39:40.449Z,-1.30
2019-01-19T07:42:10.891Z,-1.30
2019-01-19T07:44:41.187Z,-1.30
2019-01-19T07:47:11.703Z,-1.30
2019-01-19T07:49:41.985Z,-1.20
2019-01-19T07:52:12.611Z,-1.20
2019-01-19T07:54:42.940Z,-1.20
2019-01-19T07:57:13.135Z,-1.10
2019-01-19T07:59:43.402Z,-0.90
2019-01-19T08:02:13.708Z,-0.80
2019-01-19T08:04:43.991Z,-0.70
2019-01-19T08:07:17.465Z,-0.60
2019-01-19T08:09:46.152Z,-0.50
2019-01-19T08:12:16.435Z,-0.50
2019-01-19T08:14:46.714Z,-0.40
2019-01-19T08:17:16.926Z,-0.40
2019-01-19T08:19:47.158Z,-0.40
2019-01-19T08:22:17.419Z,-0.20
2019-01-19T08:24:47.749Z,-0.20
2019-01-19T08:27:18.069Z,-0.20
2019-01-19T08:29:48.274Z,-0.20
2019-01-19T08:32:18.497Z,0.00
2019-01-19T08:34:48.679Z,0.10
2019-01-19T08:37:24.399Z,0.20
2019-01-19T08:39:51.260Z,0.30
2019-01-19T08:42:21.623Z,0.40
2019-01-19T08:44:52.146Z,0.40
2019-01-19T08:47:22.815Z,0.50
2019-01-19T08:49:55.870Z,0.70
2019-01-19T08:52:26.115Z,0.80
2019-01-19T08:54:56.341Z,0.80
2019-01-19T08:57:26.498Z,1.00
2019-01-19T08:59:56.695Z,1.10
2019-01-19T09:02:26.935Z,1.20
2019-01-19T09:04:57.195Z,1.30
2019-01-19T09:07:33.687Z,1.40
2019-01-19T09:09:59.459Z,1.40
2019-01-19T09:12:29.738Z,1.50
2019-01-19T09:14:59.942Z,1.60
2019-01-19T09:17:30.201Z,1.70
2019-01-19T09:20:00.457Z,1.80
2019-01-19T09:22:32.033Z,2.10
2019-01-19T09:25:02.390Z,2.20
2019-01-19T09:27:32.638Z,2.40
2019-01-19T09:30:02.849Z,2.50
2019-01-19T09:32:33.121Z,2.50
2019-01-19T09:35:03.418Z,2.50
2019-01-19T09:37:40.668Z,2.60
2019-01-19T09:40:06.261Z,2.70
2019-01-19T09:42:36.579Z,2.80
2019-01-19T09:45:07.093Z,3.00
2019-01-19T09:47:37.382Z,3.10
2019-01-19T09:50:08.655Z,3.20
2019-01-19T09:52:38.877Z,3.40
2019-01-19T09:55:09.262Z,3.40
2019-01-19T09:57:39.511Z,3.50
2019-01-19T10:00:12.864Z,3.70
2019-01-19T10:02:43.108Z,3.70
2019-01-19T10:05:18.941Z,3.90
2019-01-19T10:07:49.147Z,4.10
2019-01-19T10:10:19.411Z,4.30
2019-01-19T10:12:49.752Z,4.60
2019-01-19T10:15:20.443Z,4.90
2019-01-19T10:17:50.824Z,5.20
2019-01-19T10:20:22.746Z,5.50
2019-01-19T10:22:52.975Z,5.80
2019-01-19T10:25:23.355Z,6.10
2019-01-19T10:27:53.612Z,6.90
2019-01-19T10:30:25.252Z,8.50
2019-01-19T10:32:55.487Z,9.50
2019-01-19T10:35:25.879Z,10.50
2019-01-19T10:37:56.894Z,11.50
2019-01-19T10:40:27.263Z,12.40
2019-01-19T10:42:57.635Z,12.70
2019-01-19T10:45:27.812Z,13.30
2019-01-19T10:47:58.368Z,13.50
2019-01-19T10:50:28.747Z,14.00
2019-01-19T10:52:59.241Z,13.80
2019-01-19T10:55:29.317Z,13.90
2019-01-19T10:57:59.607Z,13.20
2019-01-19T11:00:30.610Z,13.10
2019-01-19T11:03:00.922Z,12.70
2019-01-19T11:05:31.405Z,12.60
2019-01-19T11:08:03.981Z,12.10
2019-01-19T11:10:34.030Z,11.90
2019-01-19T11:13:04.271Z,11.70
2019-01-19T11:15:34.547Z,11.30
2019-01-19T11:18:04.994Z,11.00
2019-01-19T11:20:35.160Z,11.40
2019-01-19T11:23:06.123Z,12.00
2019-01-19T11:25:36.361Z,12.50
2019-01-19T11:28:06.446Z,12.80
2019-01-19T11:30:36.938Z,12.20
2019-01-19T11:33:07.154Z,11.20
2019-01-19T11:35:37.318Z,11.00
2019-01-19T11:38:11.936Z,11.00
2019-01-19T11:40:40.543Z,11.50
2019-01-19T11:43:11.418Z,10.60
2019-01-19T11:45:41.613Z,10.70
2019-01-19T11:48:11.710Z,11.00
2019-01-19T11:50:41.869Z,11.00
2019-01-19T11:53:12.051Z,10.90
2019-01-19T11:55:42.313Z,10.90
2019-01-19T11:58:12.428Z,10.70
2019-01-19T12:00:42.858Z,10.60
2019-01-19T12:03:12.975Z,10.00
2019-01-19T12:05:43.204Z,9.70
2019-01-19T12:08:19.486Z,9.60
2019-01-19T12:10:45.680Z,9.60
2019-01-19T12:13:16.157Z,10.20
2019-01-19T12:15:46.352Z,10.90
2019-01-19T12:18:16.870Z,11.40
2019-01-19T12:20:49.140Z,11.80
2019-01-19T12:23:19.615Z,11.50
2019-01-19T12:25:49.796Z,12.20
2019-01-19T12:28:20.044Z,12.90
2019-01-19T12:30:51.461Z,14.40
2019-01-19T12:33:21.855Z,16.10
2019-01-19T12:35:51.949Z,16.80
2019-01-19T12:38:26.741Z,17.10
2019-01-19T12:40:54.007Z,17.00
2019-01-19T12:43:25.018Z,17.10
2019-01-19T12:46:03.361Z,17.10
2019-01-19T12:48:33.619Z,16.90
2019-01-19T12:51:05.927Z,17.00
2019-01-19T12:53:36.175Z,17.00
2019-01-19T12:56:06.311Z,17.00
2019-01-19T12:58:36.551Z,16.90
2019-01-19T13:01:06.709Z,17.20
2019-01-19T13:03:36.871Z,17.70
2019-01-19T13:06:49.805Z,17.60
2019-01-19T13:09:47.186Z,17.50
2019-01-19T13:12:53.010Z,17.40
2019-01-19T13:16:18.919Z,17.60
2019-01-19T13:19:37.766Z,17.60
2019-01-19T13:23:00.672Z,15.70
2019-01-19T13:26:25.479Z,14.70
2019-01-19T13:29:45.365Z,14.50
2019-01-19T13:32:35.469Z,13.60
2019-01-19T13:35:48.532Z,13.10
2019-01-19T13:38:41.720Z,13.20
2019-01-19T13:41:44.267Z,13.70
2019-01-19T13:44:45.782Z,14.10
2019-01-19T13:47:41.434Z,14.00
2019-01-19T13:50:55.491Z,13.20
2019-01-19T13:53:50.073Z,11.80
2019-01-19T13:56:48.874Z,11.20
2019-01-19T14:00:18.370Z,10.20
2019-01-19T14:03:06.537Z,9.40
2019-01-19T14:06:02.063Z,8.10
2019-01-19T14:09:15.995Z,8.00
2019-01-19T14:12:21.849Z,7.60
2019-01-19T14:15:19.777Z,7.40
2019-01-19T14:18:29.492Z,7.30
2019-01-19T14:21:51.267Z,7.00
2019-01-19T14:25:05.343Z,6.80
2019-01-19T14:27:58.691Z,6.50
2019-01-19T14:31:04.155Z,6.50
2019-01-19T14:33:59.109Z,6.40
2019-01-19T14:37:12.452Z,6.30
2019-01-19T14:40:32.569Z,6.20
2019-01-19T14:43:52.257Z,6.10
2019-01-19T14:46:52.769Z,6.10
2019-01-19T14:50:12.739Z,6.00
2019-01-19T14:53:35.956Z,5.90
2019-01-19T14:56:52.951Z,5.70
2019-01-19T15:00:18.933Z,5.60
2019-01-19T15:03:36.226Z,5.50
2019-01-19T15:06:16.855Z,5.30
2019-01-19T15:09:24.053Z,5.10
2019-01-19T15:12:33.880Z,5.00
2019-01-19T15:15:32.620Z,5.00
2019-01-19T15:18:13.670Z,4.80
2019-01-19T15:21:00.883Z,4.70
2019-01-19T15:23:48.047Z,4.60
2019-01-19T15:27:07.962Z,4.50
2019-01-19T15:30:07.667Z,4.40
2019-01-19T15:33:12.979Z,4.30
2019-01-19T15:36:06.809Z,4.20
2019-01-19T15:39:02.042Z,4.10
2019-01-19T15:42:19.493Z,3.90
2019-01-19T15:45:24.894Z,3.70
2019-01-19T15:48:18.632Z,3.60
2019-01-19T15:51:28.873Z,3.50
2019-01-19T15:54:19.056Z,3.50
2019-01-19T15:57:25.321Z,3.30
2019-01-19T16:00:17.066Z,3.20
2019-01-19T16:03:05.079Z,3.10
2019-01-19T16:05:57.629Z,2.90
2019-01-19T16:09:20.947Z,2.80
2019-01-19T16:12:45.995Z,2.70
2019-01-19T16:15:57.282Z,2.60
2019-01-19T16:18:48.007Z,2.50
2019-01-19T16:22:01.825Z,2.30
2019-01-19T16:25:18.619Z,2.30
2019-01-19T16:28:13.723Z,2.20
2019-01-19T16:31:24.643Z,2.10
2019-01-19T16:34:57.442Z,2.00
2019-01-19T16:37:59.558Z,2.00
2019-01-19T16:41:16.424Z,1.90
2019-01-19T16:44:21.947Z,1.80
2019-01-19T16:47:25.196Z,1.60
2019-01-19T16:50:23.611Z,1.60
2019-01-19T16:53:06.018Z,1.50
2019-01-19T16:55:54.247Z,1.40
2019-01-19T16:58:57.334Z,1.40
2019-01-19T17:01:59.895Z,1.20
2019-01-19T17:05:16.584Z,1.10
2019-01-19T17:08:06.505Z,1.00
2019-01-19T17:11:20.637Z,1.00
2019-01-19T17:14:34.759Z,0.90
2019-01-19T17:18:05.839Z,0.90
2019-01-19T17:21:05.605Z,0.80
2019-01-19T17:24:10.595Z,0.70
2019-01-19T17:27:37.188Z,0.60
2019-01-19T17:30:44.233Z,0.60
2019-01-19T17:33:36.136Z,0.50
2019-01-19T17:36:52.855Z,0.50
2019-01-19T17:39:53.555Z,0.50
2019-01-19T17:42:45.237Z,0.40
2019-01-19T17:45:48.547Z,0.30
2019-01-19T17:48:31.768Z,0.30
2019-01-19T17:51:31.886Z,0.20
2019-01-19T17:54:48.984Z,0.20
2019-01-19T17:58:11.432Z,0.20
2019-01-19T18:01:17.417Z,0.20
2019-01-19T18:04:16.397Z,0.10
2019-01-19T18:07:18.249Z,0.00
2019-01-19T18:10:30.949Z,0.00
2019-01-19T18:13:27.500Z,0.00
2019-01-19T18:16:08.082Z,-0.10
2019-01-19T18:19:34.210Z,0.00
2019-01-19T18:22:23.445Z,0.00
2019-01-19T18:25:21.856Z,-0.10
2019-01-19T18:28:40.160Z,-0.20
2019-01-19T18:31:51.153Z,-0.20
2019-01-19T18:35:06.329Z,-0.20
2019-01-19T18:37:56.093Z,-0.20
2019-01-19T18:40:48.198Z,-0.40
2019-01-19T18:43:59.497Z,-0.40
2019-01-19T18:47:11.731Z,-0.40
2019-01-19T18:50:26.901Z,-0.50
2019-01-19T18:53:28.010Z,-0.50
2019-01-19T18:56:53.955Z,-0.50
2019-01-19T18:59:39.842Z,-0.50
2019-01-19T19:02:39.826Z,-0.50
2019-01-19T19:05:48.271Z,-0.50
2019-01-19T19:09:13.521Z,-0.60
2019-01-19T19:12:09.556Z,-0.70
2019-01-19T19:15:17.386Z,-0.70
2019-01-19T19:18:37.546Z,-0.70
2019-01-19T19:21:25.780Z,-0.70
2019-01-19T19:24:44.289Z,-0.60
2019-01-19T19:27:35.548Z,-0.70
2019-01-19T19:30:32.768Z,-0.70
2019-01-19T19:33:48.728Z,-0.60
2019-01-19T19:37:04.865Z,-0.60
2019-01-19T19:39:53.546Z,-0.50
2019-01-19T19:42:50.459Z,-0.60
2019-01-19T19:46:12.813Z,-0.70
2019-01-19T19:49:21.983Z,-0.70
2019-01-19T19:52:01.630Z,-0.70
2019-01-19T19:54:33.423Z,-0.70
2019-01-19T19:57:05.297Z,-0.70
2019-01-19T19:59:35.811Z,-0.80
2019-01-19T20:02:06.112Z,-0.70
2019-01-19T20:04:36.369Z,-0.70
2019-01-19T20:07:06.803Z,-0.80
2019-01-19T20:09:37.224Z,-0.90
2019-01-19T20:12:08.493Z,-1.00
2019-01-19T20:14:38.835Z,-1.00
2019-01-19T20:17:09.703Z,-1.00
2019-01-19T20:19:39.937Z,-1.10
2019-01-19T20:22:10.306Z,-1.10
2019-01-19T20:24:40.525Z,-1.10
2019-01-19T20:27:10.736Z,-1.00
2019-01-19T20:29:41.044Z,-1.10
2019-01-19T20:32:11.330Z,-1.10
2019-01-19T20:34:41.632Z,-1.20
2019-01-19T20:37:11.953Z,-1.30
2019-01-19T20:39:42.193Z,-1.40
2019-01-19T20:42:12.430Z,-1.40
2019-01-19T20:44:42.738Z,-1.40
2019-01-19T20:47:12.883Z,-1.50
2019-01-19T20:49:43.111Z,-1.50
2019-01-19T20:52:13.312Z,-1.40
2019-01-19T20:54:43.774Z,-1.30
2019-01-19T20:57:14.254Z,-1.40
2019-01-19T20:59:44.579Z,-1.40
2019-01-19T21:02:14.762Z,-1.40
2019-01-19T21:04:45.038Z,-1.20
2019-01-19T21:07:15.279Z,-1.20
2019-01-19T21:09:45.560Z,-1.20
2019-01-19T21:12:15.817Z,-1.30
2019-01-19T21:14:46.216Z,-1.20
2019-01-19T21:17:16.791Z,-1.30
2019-01-19T21:19:47.991Z,-1.30
2019-01-19T21:22:18.131Z,-1.30
2019-01-19T21:24:48.444Z,-1.40
2019-01-19T21:27:18.685Z,-1.30
2019-01-19T21:29:48.999Z,-1.20
2019-01-19T21:32:19.121Z,-1.20
2019-01-19T21:34:49.346Z,-1.20
2019-01-19T21:37:19.438Z,-1.40
2019-01-19T21:39:49.647Z,-1.50
2019-01-19T21:42:19.801Z,-1.50
2019-01-19T21:44:49.956Z,-1.60
2019-01-19T21:47:20.424Z,-1.60
2019-01-19T21:49:51.804Z,-1.60
2019-01-19T21:52:22.031Z,-1.50
2019-01-19T21:54:52.567Z,-1.60
2019-01-19T21:57:22.694Z,-1.50
2019-01-19T21:59:52.919Z,-1.40
2019-01-19T22:02:23.189Z,-1.40
2019-01-19T22:04:53.311Z,-1.30
2019-01-19T22:07:23.462Z,-1.40
2019-01-19T22:09:53.595Z,-1.40
2019-01-19T22:12:24.775Z,-1.40
2019-01-19T22:14:55.400Z,-1.50
2019-01-19T22:17:25.732Z,-1.50
2019-01-19T22:19:56.053Z,-1.50
2019-01-19T22:22:26.218Z,-1.50
2019-01-19T22:24:56.516Z,-1.60
2019-01-19T22:27:26.950Z,-1.50
2019-01-19T22:29:57.150Z,-1.50
2019-01-19T22:32:27.368Z,-1.50
2019-01-19T22:34:57.618Z,-1.40
2019-01-19T22:37:27.966Z,-1.50
2019-01-19T22:39:58.184Z,-1.60
2019-01-19T22:42:28.439Z,-1.50
2019-01-19T22:44:58.643Z,-1.50
2019-01-19T22:47:29.028Z,-1.50
2019-01-19T22:49:59.184Z,-1.70
2019-01-19T22:52:29.464Z,-1.70
2019-01-19T22:54:59.659Z,-1.70
2019-01-19T22:57:29.906Z,-1.70
2019-01-19T23:00:00.271Z,-1.70
2019-01-19T23:02:30.734Z,-1.80
2019-01-19T23:05:00.951Z,-1.80
2019-01-19T23:07:32.146Z,-1.80
2019-01-19T23:10:02.290Z,-1.80
2019-01-19T23:12:32.761Z,-1.90
2019-01-19T23:15:03.387Z,-1.90
2019-01-19T23:17:34.127Z,-1.90
2019-01-19T23:20:05.086Z,-1.80
2019-01-19T23:22:35.303Z,-1.70
2019-01-19T23:25:06.549Z,-1.70
2019-01-19T23:27:36.754Z,-1.70
2019-01-19T23:30:08.502Z,-1.70
2019-01-19T23:32:38.677Z,-1.70
2019-01-19T23:35:09.045Z,-1.70
2019-01-19T23:37:39.279Z,-1.70
2019-01-19T23:40:09.523Z,-1.70
2019-01-19T23:42:46.906Z,-1.70
2019-01-19T23:45:11.835Z,-1.70
2019-01-19T23:47:42.056Z,-1.80
2019-01-19T23:50:12.391Z,-1.80
2019-01-19T23:52:42.669Z,-1.90
2019-01-19T23:55:13.007Z,-1.90
2019-01-19T23:57:43.192Z,-1.90
